createdAt,value
2018-07-19T00:01:13.782Z,20.20
2018-07-19T00:03:42.906Z,20.10
2018-07-19T00:06:12.202Z,20.10
2018-07-19T00:08:41.262Z,20.10
2018-07-19T00:13:39.215Z,20.00
2018-07-19T00:16:08.282Z,20.00
2018-07-19T00:18:37.343Z,20.00
2018-07-19T00:21:06.426Z,19.90
2018-07-19T00:23:35.505Z,19.90
2018-07-19T00:28:33.392Z,19.90
2018-07-19T00:31:02.438Z,19.80
2018-07-19T00:33:31.589Z,19.80
2018-07-19T00:36:00.672Z,19.80
2018-07-19T00:38:29.829Z,19.70
2018-07-19T00:40:59.117Z,19.70
2018-07-19T00:43:28.172Z,19.70
2018-07-19T00:48:26.015Z,19.60
2018-07-19T00:50:55.170Z,19.60
2018-07-19T00:53:24.311Z,19.60
2018-07-19T00:55:53.376Z,19.50
2018-07-19T00:58:22.471Z,19.50
2018-07-19T01:00:51.549Z,19.40
2018-07-19T01:03:20.623Z,19.40
2018-07-19T01:05:49.718Z,19.40
2018-07-19T01:08:18.847Z,19.30
2018-07-19T01:10:47.998Z,19.30
2018-07-19T01:15:46.508Z,19.20
2018-07-19T01:18:15.606Z,19.20
2018-07-19T01:20:44.782Z,19.20
2018-07-19T01:25:42.742Z,19.10
2018-07-19T01:28:11.777Z,19.10
2018-07-19T01:30:40.932Z,19.10
2018-07-19T01:33:10.133Z,19.00
2018-07-19T01:35:40.167Z,19.00
2018-07-19T01:38:09.255Z,19.00
2018-07-19T01:40:38.388Z,19.00
2018-07-19T01:43:07.583Z,19.00
2018-07-19T01:45:36.642Z,18.90
2018-07-19T01:48:06.130Z,18.90
2018-07-19T01:50:35.244Z,18.90
2018-07-19T01:53:04.310Z,18.80
2018-07-19T01:55:33.449Z,18.80
2018-07-19T01:58:02.545Z,18.80
2018-07-19T02:07:58.438Z,18.70
2018-07-19T02:10:27.518Z,18.70
2018-07-19T02:12:56.583Z,18.70
2018-07-19T02:17:54.361Z,18.60
2018-07-19T02:20:23.426Z,18.60
2018-07-19T02:22:52.658Z,18.50
2018-07-19T02:27:50.530Z,18.50
2018-07-19T02:30:19.626Z,18.40
2018-07-19T02:35:17.412Z,18.30
2018-07-19T02:37:46.949Z,18.30
2018-07-19T02:40:16.088Z,18.30
2018-07-19T02:42:45.226Z,18.20
2018-07-19T02:50:11.777Z,18.10
2018-07-19T02:52:40.806Z,18.10
2018-07-19T02:55:09.973Z,18.10
2018-07-19T02:57:39.104Z,18.00
2018-07-19T03:00:08.179Z,18.00
2018-07-19T03:02:37.277Z,18.00
2018-07-19T03:07:35.160Z,17.90
2018-07-19T03:10:05.109Z,17.90
2018-07-19T03:12:34.157Z,17.90
2018-07-19T03:17:32.025Z,17.80
2018-07-19T03:20:01.166Z,17.80
2018-07-19T03:22:30.257Z,17.80
2018-07-19T03:24:59.422Z,17.80
2018-07-19T03:29:57.268Z,17.70
2018-07-19T03:32:26.360Z,17.70
2018-07-19T03:34:55.494Z,17.70
2018-07-19T03:39:53.472Z,17.70
2018-07-19T03:44:51.315Z,17.60
2018-07-19T03:47:20.473Z,17.60
2018-07-19T03:49:49.615Z,17.60
2018-07-19T03:52:18.705Z,17.60
2018-07-19T03:54:47.850Z,17.60
2018-07-19T03:57:16.950Z,17.50
2018-07-19T03:59:46.014Z,17.50
2018-07-19T04:02:15.106Z,17.50
2018-07-19T04:04:44.200Z,17.50
2018-07-19T04:07:13.279Z,17.50
2018-07-19T04:09:42.425Z,17.50
2018-07-19T04:14:40.380Z,17.50
2018-07-19T04:17:09.644Z,17.60
2018-07-19T04:19:38.770Z,17.50
2018-07-19T04:24:36.757Z,17.60
2018-07-19T04:29:34.671Z,17.60
2018-07-19T04:32:03.745Z,17.60
2018-07-19T04:34:32.812Z,17.60
2018-07-19T04:37:02.144Z,17.60
2018-07-19T04:41:59.984Z,17.80
2018-07-19T04:44:29.021Z,17.80
2018-07-19T04:49:30.979Z,17.90
2018-07-19T04:52:00.904Z,18.00
2018-07-19T04:56:58.753Z,18.10
2018-07-19T04:59:27.817Z,18.20
2018-07-19T05:01:56.963Z,18.20
2018-07-19T05:04:26.124Z,18.20
2018-07-19T05:06:55.266Z,18.30
2018-07-19T05:11:53.349Z,18.40
2018-07-19T05:16:51.218Z,18.60
2018-07-19T05:19:20.329Z,18.60
2018-07-19T05:21:49.370Z,18.60
2018-07-19T05:24:18.438Z,18.70
2018-07-19T05:26:47.736Z,18.80
2018-07-19T05:29:16.857Z,18.90
2018-07-19T05:31:45.965Z,19.00
2018-07-19T05:34:15.088Z,19.00
2018-07-19T05:36:44.263Z,19.10
2018-07-19T05:39:13.928Z,19.20
2018-07-19T05:41:43.195Z,19.30
2018-07-19T05:44:12.808Z,19.40
2018-07-19T05:46:41.928Z,19.50
2018-07-19T05:49:10.992Z,19.60
2018-07-19T05:51:40.173Z,19.60
2018-07-19T05:54:09.347Z,19.70
2018-07-19T05:56:38.527Z,19.80
2018-07-19T05:59:07.819Z,19.90
2018-07-19T06:01:36.903Z,20.00
2018-07-19T06:04:06.098Z,20.10
2018-07-19T06:06:35.199Z,20.10
2018-07-19T06:09:06.859Z,20.20
2018-07-19T06:11:37.244Z,20.30
2018-07-19T06:14:06.541Z,20.20
2018-07-19T06:16:35.637Z,20.30
2018-07-19T06:19:04.897Z,20.30
2018-07-19T06:21:34.026Z,20.30
2018-07-19T06:24:03.187Z,20.40
2018-07-19T06:26:32.799Z,20.50
2018-07-19T06:29:02.209Z,20.70
2018-07-19T06:31:31.372Z,20.80
2018-07-19T06:34:00.780Z,20.90
2018-07-19T06:36:29.966Z,20.90
2018-07-19T06:39:00.618Z,20.80
2018-07-19T06:41:30.392Z,20.80
2018-07-19T06:46:28.302Z,20.80
2018-07-19T06:48:58.208Z,20.80
2018-07-19T06:51:27.684Z,20.90
2018-07-19T06:53:56.778Z,21.00
2018-07-19T06:56:26.089Z,21.20
2018-07-19T06:58:55.354Z,21.10
2018-07-19T07:01:25.160Z,21.20
2018-07-19T07:03:56.485Z,21.30
2018-07-19T07:06:25.607Z,21.30
2018-07-19T07:08:54.764Z,21.10
2018-07-19T07:11:23.891Z,21.00
2018-07-19T07:13:53.030Z,20.90
2018-07-19T07:18:51.091Z,20.70
2018-07-19T07:21:20.254Z,20.70
2018-07-19T07:26:25.886Z,20.90
2018-07-19T07:28:55.028Z,20.90
2018-07-19T07:31:24.134Z,21.00
2018-07-19T07:33:53.226Z,21.00
2018-07-19T07:36:22.402Z,21.10
2018-07-19T07:38:51.586Z,21.20
2018-07-19T07:41:20.693Z,21.10
2018-07-19T07:43:50.462Z,21.00
2018-07-19T07:48:49.632Z,21.10
2018-07-19T07:51:18.736Z,21.20
2018-07-19T07:53:48.141Z,21.10
2018-07-19T07:56:19.192Z,21.00
2018-07-19T08:01:17.761Z,21.20
2018-07-19T08:03:47.517Z,21.30
2018-07-19T08:06:17.345Z,21.40
2018-07-19T08:08:46.942Z,21.30
2018-07-19T08:11:17.877Z,21.30
2018-07-19T08:13:47.638Z,21.30
2018-07-19T08:16:17.804Z,21.30
2018-07-19T08:18:51.274Z,21.30
2018-07-19T08:21:21.691Z,21.10
2018-07-19T08:23:51.122Z,21.20
2018-07-19T08:26:20.728Z,21.20
2018-07-19T08:28:49.863Z,21.20
2018-07-19T08:31:19.222Z,21.30
2018-07-19T08:38:49.796Z,21.30
2018-07-19T08:41:19.289Z,21.30
2018-07-19T08:43:49.218Z,21.30
2018-07-19T08:46:21.399Z,21.20
2018-07-19T08:48:51.160Z,21.30
2018-07-19T08:51:20.600Z,21.30
2018-07-19T08:53:52.056Z,21.20
2018-07-19T08:56:21.371Z,21.20
2018-07-19T08:58:50.621Z,21.20
2018-07-19T09:01:21.078Z,21.30
2018-07-19T09:03:51.496Z,21.20
2018-07-19T09:06:23.882Z,21.10
2018-07-19T09:11:22.369Z,21.30
2018-07-19T09:13:52.413Z,21.30
2018-07-19T09:16:22.163Z,21.30
2018-07-19T09:21:20.187Z,21.40
2018-07-19T09:23:49.317Z,21.30
2018-07-19T09:31:16.030Z,21.40
2018-07-19T09:33:45.164Z,21.40
2018-07-19T09:36:14.301Z,21.40
2018-07-19T09:41:12.250Z,21.60
2018-07-19T09:43:41.406Z,21.80
2018-07-19T09:46:10.547Z,21.70
2018-07-19T09:48:39.726Z,21.70
2018-07-19T09:51:08.817Z,21.60
2018-07-19T09:53:37.891Z,21.50
2018-07-19T09:56:07.249Z,21.60
2018-07-19T10:01:10.552Z,21.50
2018-07-19T10:03:39.731Z,21.60
2018-07-19T10:06:08.875Z,21.90
2018-07-19T10:11:06.809Z,22.30
2018-07-19T10:13:36.054Z,22.40
2018-07-19T10:16:05.141Z,22.40
2018-07-19T10:18:34.274Z,22.40
2018-07-19T10:21:03.638Z,22.20
2018-07-19T10:23:32.784Z,22.50
2018-07-19T10:26:01.853Z,22.70
2018-07-19T10:28:31.057Z,22.70
2018-07-19T10:31:00.320Z,22.60
2018-07-19T10:33:29.520Z,22.70
2018-07-19T10:38:27.503Z,22.60
2018-07-19T10:40:56.592Z,22.70
2018-07-19T10:43:26.157Z,22.80
2018-07-19T10:45:55.303Z,22.90
2018-07-19T10:48:24.495Z,23.10
2018-07-19T10:50:53.615Z,23.10
2018-07-19T10:55:51.462Z,23.30
2018-07-19T10:58:20.552Z,23.40
2018-07-19T11:00:49.663Z,23.70
2018-07-19T11:03:18.772Z,24.10
2018-07-19T11:08:16.573Z,24.10
2018-07-19T11:10:45.642Z,23.90
2018-07-19T11:15:43.418Z,23.70
2018-07-19T11:18:19.095Z,23.70
2018-07-19T11:20:48.794Z,23.70
2018-07-19T11:23:18.069Z,23.70
2018-07-19T11:25:47.251Z,23.40
2018-07-19T11:28:16.410Z,23.20
2018-07-19T11:30:45.501Z,23.20
2018-07-19T11:33:14.608Z,23.10
2018-07-19T11:35:43.683Z,22.90
2018-07-19T11:38:13.154Z,23.00
2018-07-19T11:40:42.473Z,23.00
2018-07-19T11:43:11.552Z,22.90
2018-07-19T11:45:40.723Z,22.90
2018-07-19T11:48:09.810Z,22.90
2018-07-19T11:50:38.960Z,22.80
2018-07-19T11:53:09.831Z,22.70
2018-07-19T11:55:39.598Z,22.70
2018-07-19T12:00:37.987Z,22.90
2018-07-19T12:05:35.894Z,23.10
2018-07-19T12:08:05.081Z,23.20
2018-07-19T12:10:34.205Z,23.30
2018-07-19T12:13:03.551Z,23.30
2018-07-19T12:20:30.416Z,23.70
2018-07-19T12:22:59.479Z,23.60
2018-07-19T12:25:28.813Z,23.60
2018-07-19T12:27:57.968Z,23.40
2018-07-19T12:30:27.143Z,23.40
2018-07-19T12:32:56.225Z,23.10
2018-07-19T12:35:25.731Z,22.90
2018-07-19T12:37:54.830Z,23.00
2018-07-19T12:40:24.008Z,22.90
2018-07-19T12:47:50.695Z,23.20
2018-07-19T12:50:19.799Z,23.00
2018-07-19T12:52:48.872Z,23.00
2018-07-19T12:57:47.473Z,23.50
2018-07-19T13:02:45.335Z,23.70
2018-07-19T13:07:43.214Z,23.80
2018-07-19T13:10:12.719Z,23.80
2018-07-19T13:12:41.977Z,23.80
2018-07-19T13:15:11.170Z,23.80
2018-07-19T13:22:37.951Z,23.60
2018-07-19T13:25:07.404Z,23.50
2018-07-19T13:32:40.530Z,23.90
2018-07-19T13:37:38.545Z,24.00
2018-07-19T13:40:07.748Z,23.80
2018-07-19T13:42:36.999Z,23.60
2018-07-19T13:45:06.203Z,23.70
2018-07-19T13:47:35.475Z,23.90
2018-07-19T13:50:05.516Z,24.30
2018-07-19T13:52:46.191Z,24.80
2018-07-19T13:55:15.390Z,25.30
2018-07-19T14:00:13.386Z,26.10
2018-07-19T14:02:42.781Z,26.70
2018-07-19T14:05:11.841Z,27.20
2018-07-19T14:07:41.213Z,27.30
2018-07-19T14:10:10.290Z,27.50
2018-07-19T14:12:39.438Z,27.60
2018-07-19T14:15:08.690Z,27.60
2018-07-19T14:17:37.943Z,28.00
2018-07-19T14:20:07.037Z,28.90
2018-07-19T14:22:36.146Z,30.10
2018-07-19T14:25:05.331Z,32.00
2018-07-19T14:27:34.454Z,33.20
2018-07-19T14:30:03.547Z,33.90
2018-07-19T14:32:33.609Z,33.60
2018-07-19T14:35:02.753Z,32.40
2018-07-19T14:37:31.928Z,32.40
2018-07-19T14:40:00.996Z,31.70
2018-07-19T14:42:30.438Z,31.10
2018-07-19T14:44:59.905Z,30.50
2018-07-19T14:47:29.054Z,30.00
2018-07-19T14:49:58.792Z,30.10
2018-07-19T14:52:27.952Z,30.20
2018-07-19T14:54:57.297Z,30.20
2018-07-19T14:57:26.425Z,29.80
2018-07-19T14:59:55.624Z,29.60
2018-07-19T15:02:24.653Z,29.60
2018-07-19T15:04:53.763Z,29.50
2018-07-19T15:07:22.852Z,29.50
2018-07-19T15:09:51.954Z,29.50
2018-07-19T15:12:21.295Z,29.90
2018-07-19T15:14:50.327Z,30.90
2018-07-19T15:17:19.506Z,31.80
2018-07-19T15:22:17.325Z,34.00
2018-07-19T15:24:46.367Z,35.20
2018-07-19T15:27:19.833Z,36.20
2018-07-19T15:29:49.101Z,36.70
2018-07-19T15:32:18.319Z,36.80
2018-07-19T15:34:47.409Z,38.00
2018-07-19T15:37:16.500Z,38.40
2018-07-19T15:39:46.321Z,38.90
2018-07-19T15:42:15.515Z,39.60
2018-07-19T15:44:44.668Z,39.90
2018-07-19T15:47:13.833Z,38.70
2018-07-19T15:49:42.914Z,37.30
2018-07-19T15:52:12.118Z,35.10
2018-07-19T15:54:41.342Z,33.80
2018-07-19T15:57:10.541Z,33.20
2018-07-19T15:59:39.634Z,32.60
2018-07-19T16:02:08.817Z,32.30
2018-07-19T16:04:37.975Z,31.60
2018-07-19T16:07:07.371Z,31.30
2018-07-19T16:09:36.487Z,31.30
2018-07-19T16:12:05.638Z,30.90
2018-07-19T16:17:03.786Z,31.20
2018-07-19T16:19:32.905Z,31.60
2018-07-19T16:22:02.029Z,31.70
2018-07-19T16:24:31.183Z,31.70
2018-07-19T16:27:00.249Z,31.80
2018-07-19T16:29:29.522Z,32.10
2018-07-19T16:31:59.296Z,33.20
2018-07-19T16:34:28.401Z,34.50
2018-07-19T16:36:57.579Z,35.50
2018-07-19T16:39:26.661Z,36.10
2018-07-19T16:41:55.860Z,34.80
2018-07-19T16:44:25.101Z,33.30
2018-07-19T16:49:22.914Z,31.00
2018-07-19T16:51:52.307Z,30.10
2018-07-19T16:54:21.883Z,29.20
2018-07-19T16:56:50.944Z,28.50
2018-07-19T16:59:20.307Z,28.00
2018-07-19T17:01:49.420Z,27.80
2018-07-19T17:04:18.536Z,27.60
2018-07-19T17:06:47.656Z,27.60
2018-07-19T17:09:16.756Z,27.50
2018-07-19T17:11:45.960Z,27.60
2018-07-19T17:14:15.125Z,27.50
2018-07-19T17:16:44.210Z,27.30
2018-07-19T17:19:13.286Z,27.20
2018-07-19T17:21:42.488Z,27.00
2018-07-19T17:24:11.565Z,27.00
2018-07-19T17:26:40.663Z,26.90
2018-07-19T17:29:09.799Z,26.90
2018-07-19T17:31:38.891Z,26.70
2018-07-19T17:34:07.930Z,26.60
2018-07-19T17:36:37.158Z,26.60
2018-07-19T17:39:09.510Z,26.50
2018-07-19T17:41:38.673Z,26.40
2018-07-19T17:46:36.447Z,26.20
2018-07-19T17:49:05.911Z,26.00
2018-07-19T17:51:35.040Z,25.90
2018-07-19T17:54:04.226Z,25.90
2018-07-19T17:56:33.330Z,25.80
2018-07-19T18:01:31.695Z,25.60
2018-07-19T18:04:00.875Z,25.50
2018-07-19T18:06:30.326Z,25.30
2018-07-19T18:08:59.557Z,25.20
2018-07-19T18:11:28.816Z,25.10
2018-07-19T18:13:57.891Z,25.00
2018-07-19T18:16:27.102Z,24.90
2018-07-19T18:18:56.132Z,24.80
2018-07-19T18:23:54.053Z,24.60
2018-07-19T18:26:23.814Z,24.60
2018-07-19T18:31:21.801Z,24.40
2018-07-19T18:36:21.492Z,24.30
2018-07-19T18:38:51.488Z,24.20
2018-07-19T18:41:20.708Z,24.10
2018-07-19T18:43:49.814Z,24.00
2018-07-19T18:46:19.597Z,23.90
2018-07-19T18:48:48.712Z,23.80
2018-07-19T18:51:18.569Z,23.70
2018-07-19T18:53:47.687Z,23.60
2018-07-19T18:56:16.802Z,23.60
2018-07-19T18:58:46.904Z,23.50
2018-07-19T19:01:15.987Z,23.40
2018-07-19T19:03:45.074Z,23.30
2018-07-19T19:06:19.112Z,23.20
2018-07-19T19:08:44.092Z,23.10
2018-07-19T19:13:42.254Z,23.00
2018-07-19T19:16:11.417Z,22.90
2018-07-19T19:18:40.471Z,22.80
2018-07-19T19:21:10.532Z,22.80
2018-07-19T19:23:39.569Z,22.70
2018-07-19T19:26:09.029Z,22.60
2018-07-19T19:28:39.121Z,22.50
2018-07-19T19:31:09.547Z,22.50
2018-07-19T19:33:39.861Z,22.40
2018-07-19T19:36:09.411Z,22.40
2018-07-19T19:38:38.562Z,22.30
2018-07-19T19:41:07.885Z,22.20
2018-07-19T19:43:37.180Z,22.10
2018-07-19T19:46:06.526Z,22.00
2018-07-19T19:48:36.338Z,21.90
2018-07-19T19:53:36.073Z,21.70
2018-07-19T19:58:34.173Z,21.60
2018-07-19T20:01:05.139Z,21.50
2018-07-19T20:03:34.198Z,21.40
2018-07-19T20:06:03.646Z,21.40
2018-07-19T20:08:32.829Z,21.40
2018-07-19T20:11:01.930Z,21.30
2018-07-19T20:13:31.993Z,21.20
2018-07-19T20:16:01.100Z,21.10
2018-07-19T20:18:30.456Z,21.10
2018-07-19T20:20:59.649Z,21.10
2018-07-19T20:23:30.086Z,21.00
2018-07-19T20:25:59.227Z,20.90
2018-07-19T20:28:28.407Z,20.90
2018-07-19T20:30:57.728Z,20.80
2018-07-19T20:33:26.860Z,20.70
2018-07-19T20:35:55.962Z,20.70
2018-07-19T20:38:25.086Z,20.60
2018-07-19T20:43:23.026Z,20.50
2018-07-19T20:45:52.094Z,20.50
2018-07-19T20:48:21.176Z,20.40
2018-07-19T20:53:19.217Z,20.40
2018-07-19T20:55:48.298Z,20.40
2018-07-19T20:58:17.425Z,20.30
2018-07-19T21:03:15.354Z,20.30
2018-07-19T21:05:46.513Z,20.30
2018-07-19T21:08:15.717Z,20.20
2018-07-19T21:10:44.979Z,20.20
2018-07-19T21:13:14.051Z,20.20
2018-07-19T21:18:11.861Z,20.20
2018-07-19T21:20:41.078Z,20.10
2018-07-19T21:23:10.253Z,20.10
2018-07-19T21:25:39.364Z,20.10
2018-07-19T21:28:08.643Z,20.00
2018-07-19T21:30:38.051Z,20.00
2018-07-19T21:33:07.306Z,20.00
2018-07-19T21:35:37.474Z,20.00
2018-07-19T21:38:06.675Z,19.90
2018-07-19T21:40:35.856Z,19.90
2018-07-19T21:43:05.105Z,19.90
2018-07-19T21:45:34.291Z,19.80
2018-07-19T21:48:03.448Z,19.80
2018-07-19T21:50:32.556Z,19.80
2018-07-19T21:53:01.788Z,19.70
2018-07-19T21:55:31.063Z,19.70
2018-07-19T21:58:00.095Z,19.70
2018-07-19T22:00:30.499Z,19.60
2018-07-19T22:03:01.439Z,19.60
2018-07-19T22:05:30.572Z,19.50
2018-07-19T22:10:28.487Z,19.50
2018-07-19T22:12:57.731Z,19.50
2018-07-19T22:15:26.960Z,19.40
2018-07-19T22:20:24.817Z,19.30
2018-07-19T22:22:53.955Z,19.30
2018-07-19T22:25:23.161Z,19.20
2018-07-19T22:27:52.320Z,19.20
2018-07-19T22:32:50.290Z,19.20
2018-07-19T22:35:19.401Z,19.10
2018-07-19T22:37:48.587Z,19.10
2018-07-19T22:40:17.885Z,19.10
2018-07-19T22:42:47.066Z,19.00
2018-07-19T22:45:17.177Z,19.00
2018-07-19T22:47:46.361Z,18.90
2018-07-19T22:50:15.522Z,18.90
2018-07-19T22:52:44.764Z,18.90
2018-07-19T22:55:13.936Z,18.90
2018-07-19T22:57:43.071Z,18.80
2018-07-19T23:00:12.222Z,18.80
2018-07-19T23:02:41.360Z,18.80
2018-07-19T23:05:11.259Z,18.70
2018-07-19T23:07:40.573Z,18.70
2018-07-19T23:10:09.668Z,18.70
2018-07-19T23:12:38.805Z,18.70
2018-07-19T23:15:07.961Z,18.70
2018-07-19T23:17:37.095Z,18.60
2018-07-19T23:25:03.786Z,18.60
2018-07-19T23:27:32.853Z,18.60
2018-07-19T23:32:30.711Z,18.50
2018-07-19T23:34:59.863Z,18.50
2018-07-19T23:37:32.260Z,18.50
2018-07-19T23:40:06.232Z,18.40
2018-07-19T23:42:42.304Z,18.40
2018-07-19T23:45:24.387Z,18.40
2018-07-19T23:47:54.029Z,18.40
2018-07-19T23:50:23.171Z,18.40
2018-07-19T23:55:21.024Z,18.30
2018-07-19T23:57:50.062Z,18.30
